sensor_id;sensor_type;location;lat;lon;timestamp;temperature;humidity
7046;DHT22;3564;53.326;10.356;2024-01-25T00:00:17;10.90;99.90
7046;DHT22;3564;53.326;10.356;2024-01-25T00:02:43;10.90;99.90
7046;DHT22;3564;53.326;10.356;2024-01-25T00:05:08;10.90;99.90
7046;DHT22;3564;53.326;10.356;2024-01-25T00:07:34;10.90;99.90
7046;DHT22;3564;53.326;10.356;2024-01-25T00:09:59;10.90;99.90
7046;DHT22;3564;53.326;10.356;2024-01-25T00:12:29;10.80;99.90
7046;DHT22;3564;53.326;10.356;2024-01-25T00:14:54;10.80;99.90
7046;DHT22;3564;53.326;10.356;2024-01-25T00:17:23;10.80;99.90
7046;DHT22;3564;53.326;10.356;2024-01-25T00:19:49;10.90;99.90
7046;DHT22;3564;53.326;10.356;2024-01-25T00:22:17;10.90;99.90
7046;DHT22;3564;53.326;10.356;2024-01-25T00:24:46;10.80;99.90
7046;DHT22;3564;53.326;10.356;2024-01-25T00:27:14;10.80;99.90
7046;DHT22;3564;53.326;10.356;2024-01-25T00:29:41;10.80;99.90
7046;DHT22;3564;53.326;10.356;2024-01-25T00:32:09;10.80;99.90
7046;DHT22;3564;53.326;10.356;2024-01-25T00:34:35;10.80;99.90
7046;DHT22;3564;53.326;10.356;2024-01-25T00:37:01;10.70;99.90
7046;DHT22;3564;53.326;10.356;2024-01-25T00:39:27;10.70;99.90
7046;DHT22;3564;53.326;10.356;2024-01-25T00:41:55;10.70;99.90
7046;DHT22;3564;53.326;10.356;2024-01-25T00:44:24;10.60;99.90
7046;DHT22;3564;53.326;10.356;2024-01-25T00:46:50;10.60;99.90
7046;DHT22;3564;53.326;10.356;2024-01-25T00:49:18;10.60;99.90
7046;DHT22;3564;53.326;10.356;2024-01-25T00:51:48;10.60;99.90
7046;DHT22;3564;53.326;10.356;2024-01-25T00:54:17;10.60;99.90
7046;DHT22;3564;53.326;10.356;2024-01-25T00:56:43;10.60;99.90
7046;DHT22;3564;53.326;10.356;2024-01-25T00:59:08;10.60;99.90
7046;DHT22;3564;53.326;10.356;2024-01-25T01:01:37;10.60;99.90
7046;DHT22;3564;53.326;10.356;2024-01-25T01:04:04;10.60;99.90
7046;DHT22;3564;53.326;10.356;2024-01-25T01:06:32;10.60;99.90
7046;DHT22;3564;53.326;10.356;2024-01-25T01:08:58;10.60;99.90
7046;DHT22;3564;53.326;10.356;2024-01-25T01:11:24;10.60;99.90
7046;DHT22;3564;53.326;10.356;2024-01-25T01:13:50;10.60;99.90
7046;DHT22;3564;53.326;10.356;2024-01-25T01:16:15;10.60;99.90
7046;DHT22;3564;53.326;10.356;2024-01-25T01:18:41;10.60;99.90
7046;DHT22;3564;53.326;10.356;2024-01-25T01:21:07;10.60;99.90
7046;DHT22;3564;53.326;10.356;2024-01-25T01:23:32;10.60;99.90
7046;DHT22;3564;53.326;10.356;2024-01-25T01:25:58;10.60;99.90
7046;DHT22;3564;53.326;10.356;2024-01-25T01:28:23;10.70;99.90
7046;DHT22;3564;53.326;10.356;2024-01-25T01:30:49;10.60;99.90
7046;DHT22;3564;53.326;10.356;2024-01-25T01:33:14;10.60;99.90
7046;DHT22;3564;53.326;10.356;2024-01-25T01:35:46;10.60;99.90
7046;DHT22;3564;53.326;10.356;2024-01-25T01:38:12;10.60;99.90
7046;DHT22;3564;53.326;10.356;2024-01-25T01:40:37;10.70;99.90
7046;DHT22;3564;53.326;10.356;2024-01-25T01:43:03;10.70;99.90
7046;DHT22;3564;53.326;10.356;2024-01-25T01:45:32;10.70;99.90
7046;DHT22;3564;53.326;10.356;2024-01-25T01:47:58;10.70;99.90
7046;DHT22;3564;53.326;10.356;2024-01-25T01:50:30;10.70;99.90
7046;DHT22;3564;53.326;10.356;2024-01-25T01:52:55;10.70;99.90
7046;DHT22;3564;53.326;10.356;2024-01-25T01:55:21;10.80;99.90
7046;DHT22;3564;53.326;10.356;2024-01-25T01:57:48;10.70;99.90
7046;DHT22;3564;53.326;10.356;2024-01-25T02:00:17;10.70;99.90
7046;DHT22;3564;53.326;10.356;2024-01-25T02:02:43;10.70;99.90
7046;DHT22;3564;53.326;10.356;2024-01-25T02:05:10;10.70;99.90
7046;DHT22;3564;53.326;10.356;2024-01-25T02:07:37;10.70;99.90
7046;DHT22;3564;53.326;10.356;2024-01-25T02:10:03;10.70;99.90
7046;DHT22;3564;53.326;10.356;2024-01-25T02:12:29;10.70;99.90
7046;DHT22;3564;53.326;10.356;2024-01-25T02:14:58;10.70;99.90
7046;DHT22;3564;53.326;10.356;2024-01-25T02:17:23;10.60;99.90
7046;DHT22;3564;53.326;10.356;2024-01-25T02:19:49;10.60;99.90
7046;DHT22;3564;53.326;10.356;2024-01-25T02:22:18;10.70;99.90
7046;DHT22;3564;53.326;10.356;2024-01-25T02:24:47;10.80;99.90
7046;DHT22;3564;53.326;10.356;2024-01-25T02:27:13;10.80;99.90
7046;DHT22;3564;53.326;10.356;2024-01-25T02:29:38;10.80;99.90
7046;DHT22;3564;53.326;10.356;2024-01-25T02:32:07;10.70;99.90
7046;DHT22;3564;53.326;10.356;2024-01-25T02:34:32;10.80;99.90
7046;DHT22;3564;53.326;10.356;2024-01-25T02:37:01;10.70;99.90
7046;DHT22;3564;53.326;10.356;2024-01-25T02:39:28;10.80;99.90
7046;DHT22;3564;53.326;10.356;2024-01-25T02:41:56;10.70;99.90
7046;DHT22;3564;53.326;10.356;2024-01-25T02:44:25;10.80;99.90
7046;DHT22;3564;53.326;10.356;2024-01-25T02:46:53;10.80;99.90
7046;DHT22;3564;53.326;10.356;2024-01-25T02:49:19;10.80;99.90
7046;DHT22;3564;53.326;10.356;2024-01-25T02:51:44;10.80;99.90
7046;DHT22;3564;53.326;10.356;2024-01-25T02:54:10;10.80;99.90
7046;DHT22;3564;53.326;10.356;2024-01-25T02:56:38;10.80;99.90
7046;DHT22;3564;53.326;10.356;2024-01-25T02:59:04;10.80;99.90
7046;DHT22;3564;53.326;10.356;2024-01-25T03:01:40;10.80;99.90
7046;DHT22;3564;53.326;10.356;2024-01-25T03:04:12;10.80;99.90
7046;DHT22;3564;53.326;10.356;2024-01-25T03:06:38;10.90;99.90
7046;DHT22;3564;53.326;10.356;2024-01-25T03:09:04;10.90;99.90
7046;DHT22;3564;53.326;10.356;2024-01-25T03:11:36;10.80;99.90
7046;DHT22;3564;53.326;10.356;2024-01-25T03:14:11;10.80;99.90
7046;DHT22;3564;53.326;10.356;2024-01-25T03:16:36;10.80;99.90
7046;DHT22;3564;53.326;10.356;2024-01-25T03:19:02;10.80;99.90
7046;DHT22;3564;53.326;10.356;2024-01-25T03:21:27;10.80;99.90
7046;DHT22;3564;53.326;10.356;2024-01-25T03:23:54;10.70;99.90
7046;DHT22;3564;53.326;10.356;2024-01-25T03:26:20;10.70;99.90
7046;DHT22;3564;53.326;10.356;2024-01-25T03:28:45;10.80;99.90
7046;DHT22;3564;53.326;10.356;2024-01-25T03:31:11;10.70;99.90
7046;DHT22;3564;53.326;10.356;2024-01-25T03:33:36;10.70;99.90
7046;DHT22;3564;53.326;10.356;2024-01-25T03:36:03;10.80;99.90
7046;DHT22;3564;53.326;10.356;2024-01-25T03:38:29;10.80;99.90
7046;DHT22;3564;53.326;10.356;2024-01-25T03:40:55;10.80;99.90
7046;DHT22;3564;53.326;10.356;2024-01-25T03:43:22;10.80;99.90
7046;DHT22;3564;53.326;10.356;2024-01-25T03:45:49;10.80;99.90
7046;DHT22;3564;53.326;10.356;2024-01-25T03:48:15;10.80;99.90
7046;DHT22;3564;53.326;10.356;2024-01-25T03:50:46;10.80;99.90
7046;DHT22;3564;53.326;10.356;2024-01-25T03:53:12;10.90;99.90
7046;DHT22;3564;53.326;10.356;2024-01-25T03:55:38;10.90;99.90
7046;DHT22;3564;53.326;10.356;2024-01-25T03:58:19;10.90;99.90
7046;DHT22;3564;53.326;10.356;2024-01-25T04:00:47;10.90;99.90
7046;DHT22;3564;53.326;10.356;2024-01-25T04:03:13;10.90;99.90
7046;DHT22;3564;53.326;10.356;2024-01-25T04:05:38;10.90;99.90
7046;DHT22;3564;53.326;10.356;2024-01-25T04:08:10;10.90;99.90
7046;DHT22;3564;53.326;10.356;2024-01-25T04:10:36;10.90;99.90
7046;DHT22;3564;53.326;10.356;2024-01-25T04:13:02;10.90;99.90
7046;DHT22;3564;53.326;10.356;2024-01-25T04:15:30;10.80;99.90
7046;DHT22;3564;53.326;10.356;2024-01-25T04:17:55;10.90;99.90
7046;DHT22;3564;53.326;10.356;2024-01-25T04:20:24;10.90;99.90
7046;DHT22;3564;53.326;10.356;2024-01-25T04:22:49;10.90;99.90
7046;DHT22;3564;53.326;10.356;2024-01-25T04:25:18;10.90;99.90
7046;DHT22;3564;53.326;10.356;2024-01-25T04:27:47;10.90;99.90
7046;DHT22;3564;53.326;10.356;2024-01-25T04:30:13;10.90;99.90
7046;DHT22;3564;53.326;10.356;2024-01-25T04:32:39;10.90;99.90
7046;DHT22;3564;53.326;10.356;2024-01-25T04:35:05;10.90;99.90
7046;DHT22;3564;53.326;10.356;2024-01-25T04:37:31;10.90;99.90
7046;DHT22;3564;53.326;10.356;2024-01-25T04:39:57;10.90;99.90
7046;DHT22;3564;53.326;10.356;2024-01-25T04:42:22;10.90;99.90
7046;DHT22;3564;53.326;10.356;2024-01-25T04:44:48;11.00;99.90
7046;DHT22;3564;53.326;10.356;2024-01-25T04:47:13;11.00;99.90
7046;DHT22;3564;53.326;10.356;2024-01-25T04:49:42;11.00;99.90
7046;DHT22;3564;53.326;10.356;2024-01-25T04:52:08;11.00;99.90
7046;DHT22;3564;53.326;10.356;2024-01-25T04:54:33;11.00;99.90
7046;DHT22;3564;53.326;10.356;2024-01-25T04:57:11;11.00;99.90
7046;DHT22;3564;53.326;10.356;2024-01-25T04:59:36;10.90;99.90
7046;DHT22;3564;53.326;10.356;2024-01-25T05:02:02;10.90;99.90
7046;DHT22;3564;53.326;10.356;2024-01-25T05:04:29;10.90;99.90
7046;DHT22;3564;53.326;10.356;2024-01-25T05:06:54;10.90;99.90
7046;DHT22;3564;53.326;10.356;2024-01-25T05:09:21;10.90;99.90
7046;DHT22;3564;53.326;10.356;2024-01-25T05:11:46;10.80;99.90
7046;DHT22;3564;53.326;10.356;2024-01-25T05:14:12;10.90;99.90
7046;DHT22;3564;53.326;10.356;2024-01-25T05:16:37;10.90;99.90
7046;DHT22;3564;53.326;10.356;2024-01-25T05:19:03;10.90;99.90
7046;DHT22;3564;53.326;10.356;2024-01-25T05:21:32;11.00;99.90
7046;DHT22;3564;53.326;10.356;2024-01-25T05:23:57;11.00;99.90
7046;DHT22;3564;53.326;10.356;2024-01-25T05:26:23;11.00;99.90
7046;DHT22;3564;53.326;10.356;2024-01-25T05:28:49;11.00;99.90
7046;DHT22;3564;53.326;10.356;2024-01-25T05:31:14;11.00;99.90
7046;DHT22;3564;53.326;10.356;2024-01-25T05:33:42;10.90;99.90
7046;DHT22;3564;53.326;10.356;2024-01-25T05:36:10;10.90;99.90
7046;DHT22;3564;53.326;10.356;2024-01-25T05:38:37;10.90;99.90
7046;DHT22;3564;53.326;10.356;2024-01-25T05:41:03;11.00;99.90
7046;DHT22;3564;53.326;10.356;2024-01-25T05:43:28;10.90;99.90
7046;DHT22;3564;53.326;10.356;2024-01-25T05:45:54;10.90;99.90
7046;DHT22;3564;53.326;10.356;2024-01-25T05:48:19;10.90;99.90
7046;DHT22;3564;53.326;10.356;2024-01-25T05:50:45;10.90;99.90
7046;DHT22;3564;53.326;10.356;2024-01-25T05:53:11;10.90;99.90
7046;DHT22;3564;53.326;10.356;2024-01-25T05:55:36;11.00;99.90
7046;DHT22;3564;53.326;10.356;2024-01-25T05:58:02;11.00;99.90
7046;DHT22;3564;53.326;10.356;2024-01-25T06:00:28;11.00;99.90
7046;DHT22;3564;53.326;10.356;2024-01-25T06:02:53;11.00;99.90
7046;DHT22;3564;53.326;10.356;2024-01-25T06:05:19;10.90;99.90
7046;DHT22;3564;53.326;10.356;2024-01-25T06:07:45;10.90;99.90
7046;DHT22;3564;53.326;10.356;2024-01-25T06:10:11;10.90;99.90
7046;DHT22;3564;53.326;10.356;2024-01-25T06:12:36;10.80;99.90
7046;DHT22;3564;53.326;10.356;2024-01-25T06:15:02;10.80;99.90
7046;DHT22;3564;53.326;10.356;2024-01-25T06:17:28;10.90;99.90
7046;DHT22;3564;53.326;10.356;2024-01-25T06:19:53;10.90;99.90
7046;DHT22;3564;53.326;10.356;2024-01-25T06:22:22;10.90;99.90
7046;DHT22;3564;53.326;10.356;2024-01-25T06:24:51;10.80;99.90
7046;DHT22;3564;53.326;10.356;2024-01-25T06:27:16;10.90;99.90
7046;DHT22;3564;53.326;10.356;2024-01-25T06:29:42;10.90;99.90
7046;DHT22;3564;53.326;10.356;2024-01-25T06:32:07;10.90;99.90
7046;DHT22;3564;53.326;10.356;2024-01-25T06:34:33;10.80;99.90
7046;DHT22;3564;53.326;10.356;2024-01-25T06:36:58;10.90;99.90
7046;DHT22;3564;53.326;10.356;2024-01-25T06:39:27;10.90;99.90
7046;DHT22;3564;53.326;10.356;2024-01-25T06:41:56;10.90;99.90
7046;DHT22;3564;53.326;10.356;2024-01-25T06:44:21;10.90;99.90
7046;DHT22;3564;53.326;10.356;2024-01-25T06:46:47;10.90;99.90
7046;DHT22;3564;53.326;10.356;2024-01-25T06:49:13;10.90;99.90
7046;DHT22;3564;53.326;10.356;2024-01-25T06:51:39;10.90;99.90
7046;DHT22;3564;53.326;10.356;2024-01-25T06:54:04;10.90;99.90
7046;DHT22;3564;53.326;10.356;2024-01-25T06:56:34;10.90;99.90
7046;DHT22;3564;53.326;10.356;2024-01-25T06:59:00;10.90;99.90
7046;DHT22;3564;53.326;10.356;2024-01-25T07:01:28;10.90;99.90
7046;DHT22;3564;53.326;10.356;2024-01-25T07:03:58;10.80;99.90
7046;DHT22;3564;53.326;10.356;2024-01-25T07:06:24;10.90;99.90
7046;DHT22;3564;53.326;10.356;2024-01-25T07:08:51;10.90;99.90
7046;DHT22;3564;53.326;10.356;2024-01-25T07:11:21;10.90;99.90
7046;DHT22;3564;53.326;10.356;2024-01-25T07:13:47;10.80;99.90
7046;DHT22;3564;53.326;10.356;2024-01-25T07:16:12;10.80;99.90
7046;DHT22;3564;53.326;10.356;2024-01-25T07:18:38;10.80;99.90
7046;DHT22;3564;53.326;10.356;2024-01-25T07:21:04;10.80;99.90
7046;DHT22;3564;53.326;10.356;2024-01-25T07:23:30;10.80;99.90
7046;DHT22;3564;53.326;10.356;2024-01-25T07:25:56;10.80;99.90
7046;DHT22;3564;53.326;10.356;2024-01-25T07:28:21;10.80;99.90
7046;DHT22;3564;53.326;10.356;2024-01-25T07:30:47;10.80;99.90
7046;DHT22;3564;53.326;10.356;2024-01-25T07:33:14;10.80;99.90
7046;DHT22;3564;53.326;10.356;2024-01-25T07:35:40;10.80;99.90
7046;DHT22;3564;53.326;10.356;2024-01-25T07:38:14;10.80;99.90
7046;DHT22;3564;53.326;10.356;2024-01-25T07:40:40;10.80;99.90
7046;DHT22;3564;53.326;10.356;2024-01-25T07:43:05;10.70;99.90
7046;DHT22;3564;53.326;10.356;2024-01-25T07:45:34;10.70;99.90
7046;DHT22;3564;53.326;10.356;2024-01-25T07:48:00;10.70;99.90
7046;DHT22;3564;53.326;10.356;2024-01-25T07:50:28;10.70;99.90
7046;DHT22;3564;53.326;10.356;2024-01-25T07:52:54;10.80;99.90
7046;DHT22;3564;53.326;10.356;2024-01-25T07:55:20;10.80;99.90
7046;DHT22;3564;53.326;10.356;2024-01-25T07:57:45;10.70;99.90
7046;DHT22;3564;53.326;10.356;2024-01-25T08:00:11;10.70;99.90
7046;DHT22;3564;53.326;10.356;2024-01-25T08:02:37;10.70;99.90
7046;DHT22;3564;53.326;10.356;2024-01-25T08:05:07;10.80;99.90
7046;DHT22;3564;53.326;10.356;2024-01-25T08:07:32;10.70;99.90
7046;DHT22;3564;53.326;10.356;2024-01-25T08:09:59;10.70;99.90
7046;DHT22;3564;53.326;10.356;2024-01-25T08:12:25;10.70;99.90
7046;DHT22;3564;53.326;10.356;2024-01-25T08:14:53;10.70;99.90
7046;DHT22;3564;53.326;10.356;2024-01-25T08:17:19;10.70;99.90
7046;DHT22;3564;53.326;10.356;2024-01-25T08:19:45;10.80;99.90
7046;DHT22;3564;53.326;10.356;2024-01-25T08:22:12;10.80;99.90
7046;DHT22;3564;53.326;10.356;2024-01-25T08:24:40;10.80;99.90
7046;DHT22;3564;53.326;10.356;2024-01-25T08:27:09;10.80;99.90
7046;DHT22;3564;53.326;10.356;2024-01-25T08:29:34;10.80;99.90
7046;DHT22;3564;53.326;10.356;2024-01-25T08:32:02;10.80;99.90
7046;DHT22;3564;53.326;10.356;2024-01-25T08:34:28;10.80;99.90
7046;DHT22;3564;53.326;10.356;2024-01-25T08:36:54;10.80;99.90
7046;DHT22;3564;53.326;10.356;2024-01-25T08:39:19;10.80;99.90
7046;DHT22;3564;53.326;10.356;2024-01-25T08:41:45;10.80;99.90
7046;DHT22;3564;53.326;10.356;2024-01-25T08:44:12;10.80;99.90
7046;DHT22;3564;53.326;10.356;2024-01-25T08:46:38;10.80;99.90
7046;DHT22;3564;53.326;10.356;2024-01-25T08:49:03;10.80;99.90
7046;DHT22;3564;53.326;10.356;2024-01-25T08:51:34;10.80;99.90
7046;DHT22;3564;53.326;10.356;2024-01-25T08:53:59;10.80;99.90
7046;DHT22;3564;53.326;10.356;2024-01-25T08:56:25;10.70;99.90
7046;DHT22;3564;53.326;10.356;2024-01-25T08:58:50;10.80;99.90
7046;DHT22;3564;53.326;10.356;2024-01-25T09:01:17;10.80;99.90
7046;DHT22;3564;53.326;10.356;2024-01-25T09:03:49;10.80;99.90
7046;DHT22;3564;53.326;10.356;2024-01-25T09:06:18;10.90;99.90
7046;DHT22;3564;53.326;10.356;2024-01-25T09:08:49;10.90;99.90
7046;DHT22;3564;53.326;10.356;2024-01-25T09:11:15;10.90;99.90
7046;DHT22;3564;53.326;10.356;2024-01-25T09:13:40;10.90;99.90
7046;DHT22;3564;53.326;10.356;2024-01-25T09:16:10;10.90;99.90
7046;DHT22;3564;53.326;10.356;2024-01-25T09:18:36;10.90;99.90
7046;DHT22;3564;53.326;10.356;2024-01-25T09:21:01;10.90;99.90
7046;DHT22;3564;53.326;10.356;2024-01-25T09:23:27;10.90;99.90
7046;DHT22;3564;53.326;10.356;2024-01-25T09:25:52;11.00;99.90
7046;DHT22;3564;53.326;10.356;2024-01-25T09:28:18;11.00;99.90
7046;DHT22;3564;53.326;10.356;2024-01-25T09:30:44;11.00;99.90
7046;DHT22;3564;53.326;10.356;2024-01-25T09:33:09;11.00;99.90
7046;DHT22;3564;53.326;10.356;2024-01-25T09:35:35;11.00;99.90
7046;DHT22;3564;53.326;10.356;2024-01-25T09:38:00;11.00;99.90
7046;DHT22;3564;53.326;10.356;2024-01-25T09:40:26;11.10;99.90
7046;DHT22;3564;53.326;10.356;2024-01-25T09:42:52;11.10;99.90
7046;DHT22;3564;53.326;10.356;2024-01-25T09:45:19;11.10;99.90
7046;DHT22;3564;53.326;10.356;2024-01-25T09:47:45;11.10;99.90
7046;DHT22;3564;53.326;10.356;2024-01-25T09:50:11;11.10;99.90
7046;DHT22;3564;53.326;10.356;2024-01-25T09:52:38;11.10;99.90
7046;DHT22;3564;53.326;10.356;2024-01-25T09:55:06;11.10;99.90
7046;DHT22;3564;53.326;10.356;2024-01-25T09:57:35;11.10;99.90
7046;DHT22;3564;53.326;10.356;2024-01-25T10:00:04;11.10;99.90
7046;DHT22;3564;53.326;10.356;2024-01-25T10:02:31;11.10;99.90
7046;DHT22;3564;53.326;10.356;2024-01-25T10:04:56;11.10;99.90
7046;DHT22;3564;53.326;10.356;2024-01-25T10:07:42;11.10;99.90
7046;DHT22;3564;53.326;10.356;2024-01-25T10:10:08;11.10;99.90
7046;DHT22;3564;53.326;10.356;2024-01-25T10:12:34;11.20;99.90
7046;DHT22;3564;53.326;10.356;2024-01-25T10:15:00;11.20;99.90
7046;DHT22;3564;53.326;10.356;2024-01-25T10:17:28;11.10;99.90
7046;DHT22;3564;53.326;10.356;2024-01-25T10:19:53;11.10;99.90
7046;DHT22;3564;53.326;10.356;2024-01-25T10:22:19;11.10;99.90
7046;DHT22;3564;53.326;10.356;2024-01-25T10:24:45;11.10;99.90
7046;DHT22;3564;53.326;10.356;2024-01-25T10:27:11;11.10;99.90
7046;DHT22;3564;53.326;10.356;2024-01-25T10:29:37;11.20;99.90
7046;DHT22;3564;53.326;10.356;2024-01-25T10:32:06;11.20;99.90
7046;DHT22;3564;53.326;10.356;2024-01-25T10:34:35;11.20;99.90
7046;DHT22;3564;53.326;10.356;2024-01-25T10:37:03;11.30;99.90
7046;DHT22;3564;53.326;10.356;2024-01-25T10:39:30;11.30;99.90
7046;DHT22;3564;53.326;10.356;2024-01-25T10:42:00;11.30;99.90
7046;DHT22;3564;53.326;10.356;2024-01-25T10:44:26;11.30;99.90
7046;DHT22;3564;53.326;10.356;2024-01-25T10:46:52;11.30;99.90
7046;DHT22;3564;53.326;10.356;2024-01-25T10:49:20;11.40;99.90
7046;DHT22;3564;53.326;10.356;2024-01-25T10:51:46;11.40;99.90
7046;DHT22;3564;53.326;10.356;2024-01-25T10:54:12;11.40;99.90
7046;DHT22;3564;53.326;10.356;2024-01-25T10:56:41;11.40;99.90
7046;DHT22;3564;53.326;10.356;2024-01-25T10:59:11;11.40;99.90
7046;DHT22;3564;53.326;10.356;2024-01-25T11:01:36;11.30;99.90
7046;DHT22;3564;53.326;10.356;2024-01-25T11:04:03;11.40;99.90
7046;DHT22;3564;53.326;10.356;2024-01-25T11:06:37;11.40;99.90
7046;DHT22;3564;53.326;10.356;2024-01-25T11:09:06;11.40;99.90
7046;DHT22;3564;53.326;10.356;2024-01-25T11:11:32;11.40;99.90
7046;DHT22;3564;53.326;10.356;2024-01-25T11:14:03;11.40;99.90
7046;DHT22;3564;53.326;10.356;2024-01-25T11:16:30;11.40;99.90
7046;DHT22;3564;53.326;10.356;2024-01-25T11:19:00;11.50;99.90
7046;DHT22;3564;53.326;10.356;2024-01-25T11:21:45;11.50;99.90
7046;DHT22;3564;53.326;10.356;2024-01-25T11:26:46;11.50;99.90
7046;DHT22;3564;53.326;10.356;2024-01-25T11:29:18;11.50;99.90
7046;DHT22;3564;53.326;10.356;2024-01-25T11:31:47;11.50;99.90
7046;DHT22;3564;53.326;10.356;2024-01-25T11:34:14;11.50;99.90
7046;DHT22;3564;53.326;10.356;2024-01-25T11:36:43;11.50;99.90
7046;DHT22;3564;53.326;10.356;2024-01-25T11:39:10;11.50;99.90
7046;DHT22;3564;53.326;10.356;2024-01-25T11:41:36;11.50;99.90
7046;DHT22;3564;53.326;10.356;2024-01-25T11:44:02;11.50;99.90
7046;DHT22;3564;53.326;10.356;2024-01-25T11:46:30;11.50;99.90
7046;DHT22;3564;53.326;10.356;2024-01-25T11:48:56;11.50;99.90
7046;DHT22;3564;53.326;10.356;2024-01-25T11:51:22;11.50;99.90
7046;DHT22;3564;53.326;10.356;2024-01-25T11:53:47;11.40;99.90
7046;DHT22;3564;53.326;10.356;2024-01-25T11:56:17;11.40;99.90
7046;DHT22;3564;53.326;10.356;2024-01-25T11:58:45;11.40;99.90
7046;DHT22;3564;53.326;10.356;2024-01-25T12:01:12;11.40;99.90
7046;DHT22;3564;53.326;10.356;2024-01-25T12:03:40;11.40;99.90
7046;DHT22;3564;53.326;10.356;2024-01-25T12:06:08;11.40;99.90
7046;DHT22;3564;53.326;10.356;2024-01-25T12:08:35;11.40;99.90
7046;DHT22;3564;53.326;10.356;2024-01-25T12:11:05;11.40;99.90
7046;DHT22;3564;53.326;10.356;2024-01-25T12:13:42;11.40;99.90
7046;DHT22;3564;53.326;10.356;2024-01-25T12:16:12;11.40;99.90
7046;DHT22;3564;53.326;10.356;2024-01-25T12:18:39;11.40;99.90
7046;DHT22;3564;53.326;10.356;2024-01-25T12:21:05;11.40;99.90
7046;DHT22;3564;53.326;10.356;2024-01-25T12:23:38;11.40;99.90
7046;DHT22;3564;53.326;10.356;2024-01-25T12:26:08;11.30;99.90
7046;DHT22;3564;53.326;10.356;2024-01-25T12:28:37;11.30;99.90
7046;DHT22;3564;53.326;10.356;2024-01-25T12:31:05;11.40;99.90
7046;DHT22;3564;53.326;10.356;2024-01-25T12:33:31;11.40;99.90
7046;DHT22;3564;53.326;10.356;2024-01-25T12:35:57;11.40;99.90
7046;DHT22;3564;53.326;10.356;2024-01-25T12:38:26;11.40;99.90
7046;DHT22;3564;53.326;10.356;2024-01-25T12:40:53;11.40;99.90
7046;DHT22;3564;53.326;10.356;2024-01-25T12:43:20;11.40;99.90
7046;DHT22;3564;53.326;10.356;2024-01-25T12:45:48;11.40;99.90
7046;DHT22;3564;53.326;10.356;2024-01-25T12:48:14;11.40;99.90
7046;DHT22;3564;53.326;10.356;2024-01-25T12:50:43;11.40;99.90
7046;DHT22;3564;53.326;10.356;2024-01-25T12:53:12;11.40;99.90
7046;DHT22;3564;53.326;10.356;2024-01-25T12:55:39;11.40;99.90
7046;DHT22;3564;53.326;10.356;2024-01-25T12:58:05;11.40;99.90
7046;DHT22;3564;53.326;10.356;2024-01-25T13:00:31;11.40;99.90
7046;DHT22;3564;53.326;10.356;2024-01-25T13:02:56;11.40;99.90
7046;DHT22;3564;53.326;10.356;2024-01-25T13:05:22;11.40;99.90
7046;DHT22;3564;53.326;10.356;2024-01-25T13:07:49;11.40;99.90
7046;DHT22;3564;53.326;10.356;2024-01-25T13:10:14;11.40;99.90
7046;DHT22;3564;53.326;10.356;2024-01-25T13:12:40;11.40;99.90
7046;DHT22;3564;53.326;10.356;2024-01-25T13:15:09;11.40;99.90
7046;DHT22;3564;53.326;10.356;2024-01-25T13:17:35;11.40;99.90
7046;DHT22;3564;53.326;10.356;2024-01-25T13:20:05;11.40;99.90
7046;DHT22;3564;53.326;10.356;2024-01-25T13:22:34;11.40;99.90
7046;DHT22;3564;53.326;10.356;2024-01-25T13:25:03;11.50;99.90
7046;DHT22;3564;53.326;10.356;2024-01-25T13:27:29;11.40;99.90
7046;DHT22;3564;53.326;10.356;2024-01-25T13:29:55;11.40;99.90
7046;DHT22;3564;53.326;10.356;2024-01-25T13:32:22;11.50;99.90
7046;DHT22;3564;53.326;10.356;2024-01-25T13:34:48;11.50;99.90
7046;DHT22;3564;53.326;10.356;2024-01-25T13:37:14;11.50;99.90
7046;DHT22;3564;53.326;10.356;2024-01-25T13:39:39;11.50;99.90
7046;DHT22;3564;53.326;10.356;2024-01-25T13:42:05;11.50;99.90
7046;DHT22;3564;53.326;10.356;2024-01-25T13:44:30;11.50;99.90
7046;DHT22;3564;53.326;10.356;2024-01-25T13:46:56;11.50;99.90
7046;DHT22;3564;53.326;10.356;2024-01-25T13:49:22;11.50;99.90
7046;DHT22;3564;53.326;10.356;2024-01-25T13:51:48;11.50;99.90
7046;DHT22;3564;53.326;10.356;2024-01-25T13:54:14;11.60;99.90
7046;DHT22;3564;53.326;10.356;2024-01-25T13:56:45;11.60;99.90
7046;DHT22;3564;53.326;10.356;2024-01-25T13:59:13;11.60;99.90
7046;DHT22;3564;53.326;10.356;2024-01-25T14:01:39;11.70;99.90
7046;DHT22;3564;53.326;10.356;2024-01-25T14:04:05;11.70;99.90
7046;DHT22;3564;53.326;10.356;2024-01-25T14:06:30;11.70;99.90
7046;DHT22;3564;53.326;10.356;2024-01-25T14:08:56;11.70;99.90
7046;DHT22;3564;53.326;10.356;2024-01-25T14:11:22;11.80;99.90
7046;DHT22;3564;53.326;10.356;2024-01-25T14:13:47;11.80;99.90
7046;DHT22;3564;53.326;10.356;2024-01-25T14:16:13;11.80;99.90
7046;DHT22;3564;53.326;10.356;2024-01-25T14:18:43;11.80;99.90
7046;DHT22;3564;53.326;10.356;2024-01-25T14:21:10;11.80;99.90
7046;DHT22;3564;53.326;10.356;2024-01-25T14:23:38;11.90;99.90
7046;DHT22;3564;53.326;10.356;2024-01-25T14:26:04;11.80;99.90
7046;DHT22;3564;53.326;10.356;2024-01-25T14:28:30;11.90;99.90
7046;DHT22;3564;53.326;10.356;2024-01-25T14:30:56;11.90;99.90
7046;DHT22;3564;53.326;10.356;2024-01-25T14:33:21;11.90;99.90
7046;DHT22;3564;53.326;10.356;2024-01-25T14:35:50;11.90;99.90
7046;DHT22;3564;53.326;10.356;2024-01-25T14:38:16;12.00;99.90
7046;DHT22;3564;53.326;10.356;2024-01-25T14:40:41;12.00;99.90
7046;DHT22;3564;53.326;10.356;2024-01-25T14:43:07;12.10;99.90
7046;DHT22;3564;53.326;10.356;2024-01-25T14:45:32;12.10;99.90
7046;DHT22;3564;53.326;10.356;2024-01-25T14:48:04;12.10;99.90
7046;DHT22;3564;53.326;10.356;2024-01-25T14:50:34;12.10;99.90
7046;DHT22;3564;53.326;10.356;2024-01-25T14:52:59;12.10;99.90
7046;DHT22;3564;53.326;10.356;2024-01-25T14:55:25;12.10;99.90
7046;DHT22;3564;53.326;10.356;2024-01-25T14:57:51;12.10;99.90
7046;DHT22;3564;53.326;10.356;2024-01-25T15:00:17;12.10;99.90
7046;DHT22;3564;53.326;10.356;2024-01-25T15:02:46;12.10;99.90
7046;DHT22;3564;53.326;10.356;2024-01-25T15:05:11;12.10;99.90
7046;DHT22;3564;53.326;10.356;2024-01-25T15:07:40;12.10;99.90
7046;DHT22;3564;53.326;10.356;2024-01-25T15:10:07;12.10;99.90
7046;DHT22;3564;53.326;10.356;2024-01-25T15:12:32;12.10;99.90
7046;DHT22;3564;53.326;10.356;2024-01-25T15:14:58;12.10;99.90
7046;DHT22;3564;53.326;10.356;2024-01-25T15:17:24;12.00;99.90
7046;DHT22;3564;53.326;10.356;2024-01-25T15:19:50;12.00;99.90
7046;DHT22;3564;53.326;10.356;2024-01-25T15:22:15;12.00;99.90
7046;DHT22;3564;53.326;10.356;2024-01-25T15:24:41;12.00;99.90
7046;DHT22;3564;53.326;10.356;2024-01-25T15:27:10;12.00;99.90
7046;DHT22;3564;53.326;10.356;2024-01-25T15:29:39;11.90;99.90
7046;DHT22;3564;53.326;10.356;2024-01-25T15:32:05;11.90;99.90
7046;DHT22;3564;53.326;10.356;2024-01-25T15:34:31;11.90;99.90
7046;DHT22;3564;53.326;10.356;2024-01-25T15:36:56;11.90;99.90
7046;DHT22;3564;53.326;10.356;2024-01-25T15:39:22;11.90;99.90
7046;DHT22;3564;53.326;10.356;2024-01-25T15:41:49;11.90;99.90
7046;DHT22;3564;53.326;10.356;2024-01-25T15:44:16;11.90;99.90